Time;durP1;ratioP1;P1;durP2;ratioP2;P2;SDS_P1;SDS_P2;PMS_P1;PMS_P2;Temp;Humidity;BMP_temperature;BMP_pressure;BME280_temperature;BME280_humidity;BME280_pressure;Samples;Min_cycle;Max_cycle;Signal;HPM_P1;HPM_P2
2020/12/26 00:01:20;;;;;;;7.33;4.17;;;;;;;2.34;74.39;99484.92;1747177;81;21121;-72
2020/12/26 00:03:51;;;;;;;8.13;4.87;;;;;;;2.32;74.61;99493.86;1738523;81;21104;-71
2020/12/26 00:06:20;;;;;;;12.75;5.40;;;;;;;2.32;74.19;99490.03;1742727;81;21100;-72
2020/12/26 00:08:48;;;;;;;6.57;3.43;;;;;;;2.33;73.86;99493.01;1711440;81;21144;-72
2020/12/26 00:11:19;;;;;;;8.70;3.83;;;;;;;2.36;72.98;99497.30;1730806;81;21567;-72
2020/12/26 00:13:46;;;;;;;7.77;4.43;;;;;;;2.34;72.21;99498.54;1736399;81;21271;-71
2020/12/26 00:16:14;;;;;;;5.47;3.00;;;;;;;2.34;72.66;99495.13;1733418;81;21101;-71
2020/12/26 00:18:42;;;;;;;6.40;3.40;;;;;;;2.34;72.54;99495.98;1736861;81;21552;-71
2020/12/26 00:21:16;;;;;;;6.67;3.10;;;;;;;2.36;72.60;99507.50;1724310;81;21145;-71
2020/12/26 00:23:44;;;;;;;6.20;3.37;;;;;;;2.38;72.18;99507.08;1709743;82;21510;-71
2020/12/26 00:26:17;;;;;;;5.43;3.20;;;;;;;2.39;72.10;99509.20;1727143;82;21143;-72
2020/12/26 00:28:45;;;;;;;4.63;2.23;;;;;;;2.41;72.23;99508.38;1747559;82;21555;-71
2020/12/26 00:31:19;;;;;;;6.00;3.10;;;;;;;2.43;71.77;99502.88;1727360;82;21673;-72
2020/12/26 00:33:46;;;;;;;7.03;3.97;;;;;;;2.43;71.48;99510.97;1737783;82;21106;-72
2020/12/26 00:36:14;;;;;;;8.53;3.77;;;;;;;2.43;71.49;99508.41;1723484;82;21145;-71
2020/12/26 00:38:41;;;;;;;9.33;4.63;;;;;;;2.42;70.99;99516.50;1739215;82;21145;-70
2020/12/26 00:41:13;;;;;;;7.23;4.03;;;;;;;2.43;71.28;99512.25;1741970;82;21118;-71
2020/12/26 00:43:41;;;;;;;7.47;3.20;;;;;;;2.42;71.00;99519.05;1714906;83;21079;-72
2020/12/26 00:46:09;;;;;;;8.00;4.07;;;;;;;2.43;70.39;99525.01;1741190;82;21088;-72
2020/12/26 00:48:38;;;;;;;5.97;3.57;;;;;;;2.41;70.65;99522.84;1713109;82;21135;-71
2020/12/26 00:51:07;;;;;;;5.43;3.70;;;;;;;2.41;70.52;99524.12;1753663;82;21163;-71
2020/12/26 00:53:34;;;;;;;8.53;3.53;;;;;;;2.42;70.63;99527.11;1744455;82;21519;-71
2020/12/26 00:56:02;;;;;;;6.90;3.73;;;;;;;2.43;70.61;99530.97;1716022;83;21716;-71
2020/12/26 00:58:30;;;;;;;7.13;3.73;;;;;;;2.45;70.49;99529.69;1732110;82;21132;-72
2020/12/26 01:00:57;;;;;;;8.00;3.57;;;;;;;2.44;70.37;99525.01;1732457;82;21487;-71
2020/12/26 01:03:42;;;;;;;6.03;3.30;;;;;;;2.47;70.20;99526.74;1728680;82;21125;-71
2020/12/26 01:06:16;;;;;;;8.20;3.40;;;;;;;2.46;70.09;99531.42;1737334;82;21135;-72
2020/12/26 01:08:44;;;;;;;7.03;3.80;;;;;;;2.48;70.08;99529.72;1741779;82;21265;-71
2020/12/26 01:11:11;;;;;;;6.17;3.27;;;;;;;2.48;69.96;99533.55;1744274;82;21146;-71
2020/12/26 01:13:39;;;;;;;6.37;3.13;;;;;;;2.49;69.88;99532.73;1740635;82;21110;-71
2020/12/26 01:16:12;;;;;;;5.90;3.27;;;;;;;2.48;69.77;99536.10;1745749;82;21590;-71
2020/12/26 01:18:40;;;;;;;6.43;3.17;;;;;;;2.45;69.83;99539.90;1743900;82;21137;-72
2020/12/26 01:21:13;;;;;;;5.57;3.10;;;;;;;2.39;69.77;99530.90;1761504;81;21452;-72
2020/12/26 01:23:42;;;;;;;6.20;2.87;;;;;;;2.38;70.12;99532.60;1731612;82;21127;-71
2020/12/26 01:26:10;;;;;;;6.23;3.33;;;;;;;2.38;70.17;99531.75;1738822;81;21156;-71
2020/12/26 01:28:38;;;;;;;5.73;3.27;;;;;;;2.38;70.12;99526.64;1711553;81;21140;-71
2020/12/26 01:31:06;;;;;;;7.00;3.50;;;;;;;2.37;70.33;99530.90;1738287;82;21127;-70
2020/12/26 01:33:34;;;;;;;8.17;3.97;;;;;;;2.36;70.51;99533.03;1738984;81;21159;-71
2020/12/26 01:36:01;;;;;;;7.80;3.40;;;;;;;2.32;70.61;99524.88;1733850;81;21166;-71
2020/12/26 01:38:29;;;;;;;5.57;3.60;;;;;;;2.31;70.99;99524.03;1739043;82;21120;-71
2020/12/26 01:40:56;;;;;;;7.43;3.90;;;;;;;2.29;71.20;99526.16;1738331;81;21159;-71
2020/12/26 01:43:24;;;;;;;5.53;3.70;;;;;;;2.26;71.47;99525.70;1749278;81;21092;-72
2020/12/26 01:45:51;;;;;;;5.80;3.10;;;;;;;2.24;71.47;99523.54;1715534;82;21316;-71
2020/12/26 01:48:19;;;;;;;6.00;3.50;;;;;;;2.24;71.43;99524.81;1723637;81;21536;-72
2020/12/26 01:50:46;;;;;;;6.43;3.67;;;;;;;2.20;71.51;99526.91;1750554;81;21581;-71
2020/12/26 01:53:14;;;;;;;5.47;3.47;;;;;;;2.19;71.28;99521.37;1771096;81;21266;-71
2020/12/26 01:55:42;;;;;;;7.80;3.67;;;;;;;2.19;71.37;99521.37;1762367;81;21088;-71
2020/12/26 01:58:13;;;;;;;8.43;3.50;;;;;;;2.19;71.45;99524.32;1741782;81;21572;-71
2020/12/26 02:00:41;;;;;;;6.83;3.27;;;;;;;2.17;71.54;99522.19;1750107;81;21119;-72
2020/12/26 02:03:09;;;;;;;5.00;3.30;;;;;;;2.17;71.47;99532.40;1757057;81;21123;-70
2020/12/26 02:05:37;;;;;;;8.67;4.37;;;;;;;2.16;71.55;99523.89;1746533;81;21137;-71
2020/12/26 02:08:05;;;;;;;5.53;3.57;;;;;;;2.19;71.58;99531.98;1750355;81;21091;-72
2020/12/26 02:10:33;;;;;;;6.10;2.90;;;;;;;2.21;71.54;99526.05;1754538;81;21254;-71
2020/12/26 02:13:01;;;;;;;5.93;2.93;;;;;;;2.22;71.15;99526.48;1770078;81;21116;-71
2020/12/26 02:15:29;;;;;;;6.70;3.37;;;;;;;2.21;71.22;99520.95;1755714;81;21552;-71
2020/12/26 02:17:56;;;;;;;5.97;3.53;;;;;;;2.22;71.39;99530.30;1759906;81;21258;-71
2020/12/26 02:20:26;;;;;;;4.53;2.40;;;;;;;2.24;70.99;99526.09;1765746;81;21302;-72
2020/12/26 02:22:53;;;;;;;7.23;3.80;;;;;;;2.24;70.61;99536.72;1760079;81;21112;-73
2020/12/26 02:25:21;;;;;;;6.43;3.20;;;;;;;2.25;70.61;99545.66;1712372;81;21088;-72
2020/12/26 02:27:50;;;;;;;5.30;2.83;;;;;;;2.27;70.42;99550.37;1760166;81;21148;-72
2020/12/26 02:30:18;;;;;;;7.03;3.70;;;;;;;2.28;70.32;99547.39;1754118;81;21429;-71
2020/12/26 02:32:47;;;;;;;11.83;5.07;;;;;;;2.28;70.05;99548.66;1703613;83;21112;-72
2020/12/26 02:35:14;;;;;;;4.60;2.90;;;;;;;2.24;70.22;99546.50;1730161;81;21060;-72
2020/12/26 02:37:42;;;;;;;6.27;2.80;;;;;;;2.22;70.34;99549.45;1712605;83;21679;-71
2020/12/26 02:40:10;;;;;;;11.23;4.27;;;;;;;2.21;70.43;99550.30;1751436;81;21548;-71
2020/12/26 02:42:37;;;;;;;6.93;3.70;;;;;;;2.22;70.60;99549.88;1755426;81;21266;-71
2020/12/26 02:45:05;;;;;;;5.40;3.07;;;;;;;2.20;70.69;99560.50;1728795;81;21251;-71
2020/12/26 02:47:32;;;;;;;5.27;2.73;;;;;;;2.18;70.85;99559.62;1756366;81;21140;-72
2020/12/26 02:50:00;;;;;;;4.90;2.97;;;;;;;2.16;71.04;99553.23;1753790;81;21112;-71
2020/12/26 02:52:27;;;;;;;3.80;2.50;;;;;;;2.14;70.98;99552.77;1759839;81;21116;-72
2020/12/26 02:54:55;;;;;;;6.97;3.70;;;;;;;2.10;71.17;99547.63;1760065;81;21536;-71
2020/12/26 02:57:22;;;;;;;5.97;3.83;;;;;;;2.07;71.22;99553.98;1759764;81;21112;-72
2020/12/26 02:59:50;;;;;;;8.13;3.23;;;;;;;2.04;71.58;99556.91;1759996;81;21108;-72
2020/12/26 03:02:17;;;;;;;8.37;3.77;;;;;;;2.03;71.77;99550.96;1759768;81;21548;-71
2020/12/26 03:04:45;;;;;;;6.77;3.50;;;;;;;2.03;71.87;99562.86;1740491;81;21112;-72
2020/12/26 03:07:13;;;;;;;5.80;3.23;;;;;;;2.01;71.86;99556.88;1739327;81;21164;-72
2020/12/26 03:09:41;;;;;;;5.53;3.10;;;;;;;1.98;71.77;99564.06;1732180;81;21132;-72
2020/12/26 03:12:08;;;;;;;4.53;2.77;;;;;;;1.94;71.43;99566.16;1759861;81;21520;-72
2020/12/26 03:14:36;;;;;;;5.37;3.03;;;;;;;1.91;71.45;99563.56;1759573;81;21152;-72
2020/12/26 03:17:04;;;;;;;4.53;2.50;;;;;;;1.88;71.52;99574.58;1745374;81;21512;-72
2020/12/26 03:19:31;;;;;;;4.73;2.70;;;;;;;1.91;71.42;99576.73;1753916;81;21116;-72
2020/12/26 03:21:59;;;;;;;3.73;2.30;;;;;;;1.92;71.23;99578.02;1757251;80;21326;-71
2020/12/26 03:24:27;;;;;;;3.97;2.20;;;;;;;1.95;70.95;99578.48;1756360;81;21251;-71
2020/12/26 03:26:54;;;;;;;4.70;2.00;;;;;;;1.97;70.60;99579.38;1756754;82;21513;-72
2020/12/26 03:29:22;;;;;;;4.27;2.00;;;;;;;1.97;69.97;99581.50;1755250;81;21549;-72
2020/12/26 03:31:51;;;;;;;3.70;2.30;;;;;;;1.98;70.00;99574.27;1735613;81;21144;-72
2020/12/26 03:34:19;;;;;;;3.07;1.97;;;;;;;2.01;69.56;99581.11;1710972;81;21142;-72
2020/12/26 03:36:46;;;;;;;6.00;2.27;;;;;;;2.01;69.53;99585.79;1688470;83;21141;-71
2020/12/26 03:39:13;;;;;;;6.80;2.47;;;;;;;2.02;69.28;99582.81;1661624;85;21163;-72
2020/12/26 03:41:41;;;;;;;4.67;2.10;;;;;;;2.04;69.11;99584.98;1683864;85;21556;-72
2020/12/26 03:44:08;;;;;;;3.50;2.07;;;;;;;2.05;69.19;99584.13;1756842;81;21125;-72
2020/12/26 03:46:37;;;;;;;5.23;2.93;;;;;;;2.05;68.93;99584.13;1756141;81;21540;-72
2020/12/26 03:49:04;;;;;;;3.77;2.33;;;;;;;2.04;68.88;99582.42;1755804;81;21125;-72
2020/12/26 03:51:34;;;;;;;4.63;2.67;;;;;;;2.00;68.83;99580.69;1739802;81;21128;-71
2020/12/26 03:54:01;;;;;;;4.40;2.50;;;;;;;1.94;69.11;99587.83;1756781;81;21113;-72
2020/12/26 03:56:29;;;;;;;3.73;2.40;;;;;;;1.90;69.33;99577.16;1753876;81;21089;-72
2020/12/26 03:58:56;;;;;;;4.37;2.80;;;;;;;1.85;69.51;99587.28;1723324;81;21155;-72
2020/12/26 04:01:23;;;;;;;4.37;2.50;;;;;;;1.83;69.67;99586.82;1724853;81;21144;-72
2020/12/26 04:03:51;;;;;;;3.90;2.10;;;;;;;1.77;69.78;99585.07;1732388;81;21186;-72
2020/12/26 04:06:18;;;;;;;4.43;2.50;;;;;;;1.71;69.67;99586.27;1751318;81;21108;-71
2020/12/26 04:08:46;;;;;;;3.17;2.10;;;;;;;1.64;69.79;99586.59;1727605;81;21140;-72
2020/12/26 04:11:13;;;;;;;5.43;2.80;;;;;;;1.56;70.00;99584.77;1757345;81;21525;-72
2020/12/26 04:13:41;;;;;;;5.47;3.03;;;;;;;1.46;70.12;99587.59;1744328;81;21143;-72
2020/12/26 04:16:12;;;;;;;4.73;2.60;;;;;;;1.38;70.54;99585.38;1748835;81;21108;-71
2020/12/26 04:18:39;;;;;;;;;;;;;;;1.30;70.63;99593.30;1759765;81;21073;-72
2020/12/26 04:21:08;;;;;;;4.03;2.17;;;;;;;1.23;70.86;99596.17;1738981;81;20150;-71
2020/12/26 04:23:35;;;;;;;3.57;1.93;;;;;;;1.15;70.82;99592.66;1759522;80;21132;-71
2020/12/26 04:26:03;;;;;;;4.03;2.20;;;;;;;1.11;70.78;99599.80;1757195;81;21099;-71
2020/12/26 04:28:31;;;;;;;3.23;2.23;;;;;;;1.05;70.80;99606.94;1752395;81;21576;-71
2020/12/26 04:30:58;;;;;;;2.70;2.00;;;;;;;1.00;71.01;99610.23;1722508;83;21128;-72
2020/12/26 04:33:26;;;;;;;2.73;1.80;;;;;;;0.96;71.11;99604.66;1741522;81;21556;-72
2020/12/26 04:35:54;;;;;;;2.50;1.70;;;;;;;0.89;71.33;99614.73;1728515;81;21263;-72
2020/12/26 04:38:21;;;;;;;2.73;1.80;;;;;;;0.85;71.43;99609.55;1727106;83;21548;-71
2020/12/26 04:40:49;;;;;;;3.90;2.10;;;;;;;0.81;71.62;99612.45;1733842;81;21118;-72
2020/12/26 04:43:17;;;;;;;2.53;1.70;;;;;;;0.78;71.76;99607.73;1718651;82;21143;-72
2020/12/26 04:45:44;;;;;;;5.27;2.17;;;;;;;0.74;72.04;99616.15;1756214;81;21136;-71
2020/12/26 04:48:15;;;;;;;2.97;1.80;;;;;;;0.70;72.23;99625.00;1756984;81;21132;-72
2020/12/26 04:50:47;;;;;;;4.73;2.03;;;;;;;0.69;72.44;99636.03;1751926;81;21136;-72
2020/12/26 04:53:17;;;;;;;3.43;1.63;;;;;;;0.72;72.74;99628.88;1742112;81;21124;-72
2020/12/26 04:55:50;;;;;;;2.98;1.90;;;;;;;0.76;72.84;99640.81;1753042;81;21509;-71
2020/12/26 04:58:18;;;;;;;3.37;1.93;;;;;;;0.83;72.71;99637.97;1741551;81;21120;-71
2020/12/26 05:00:46;;;;;;;4.23;1.93;;;;;;;0.89;72.50;99638.93;1756907;81;21544;-72
2020/12/26 05:03:18;;;;;;;4.00;2.23;;;;;;;0.93;72.42;99638.14;1756730;81;21069;-72
2020/12/26 05:05:46;;;;;;;2.42;1.95;;;;;;;0.97;72.46;99639.47;1756366;81;21156;-73
2020/12/26 05:08:15;;;;;;;3.50;1.80;;;;;;;1.02;72.26;99638.73;1755436;81;21100;-71
2020/12/26 05:10:43;;;;;;;3.13;1.90;;;;;;;1.05;72.12;99640.06;1736429;81;21124;-72
2020/12/26 05:13:12;;;;;;;5.17;2.27;;;;;;;1.09;71.96;99644.36;1756291;81;21395;-72
2020/12/26 05:15:40;;;;;;;4.30;2.43;;;;;;;1.11;71.84;99636.73;1756678;81;21116;-72
2020/12/26 05:18:07;;;;;;;2.83;1.83;;;;;;;1.09;71.76;99630.77;1754687;81;21117;-71
2020/12/26 05:20:35;;;;;;;4.37;2.10;;;;;;;1.09;71.74;99638.42;1756508;81;21139;-71
2020/12/26 05:23:11;;;;;;;4.20;2.50;;;;;;;1.09;71.78;99641.81;1751739;80;21158;-71
2020/12/26 05:25:44;;;;;;;4.10;2.70;;;;;;;1.09;71.84;99640.96;1746396;81;21118;-72
2020/12/26 05:28:16;;;;;;;4.73;2.57;;;;;;;1.06;71.84;99646.86;1757033;81;21130;-71
2020/12/26 05:30:50;;;;;;;3.33;2.67;;;;;;;1.05;71.91;99648.12;1752190;81;21127;-71
2020/12/26 05:33:19;;;;;;;7.83;2.80;;;;;;;1.02;71.98;99648.06;1742309;81;21527;-72
2020/12/26 05:35:51;;;;;;;5.53;2.57;;;;;;;1.02;71.99;99655.70;1750692;81;21134;-72
2020/12/26 05:38:24;;;;;;;4.83;2.93;;;;;;;1.01;72.17;99653.55;1752522;81;21563;-71
2020/12/26 05:41:00;;;;;;;4.30;2.80;;;;;;;1.00;72.23;99659.91;1752113;82;21134;-72
2020/12/26 05:43:29;;;;;;;5.87;2.90;;;;;;;0.99;72.34;99670.93;1756932;81;21158;-71
2020/12/26 05:45:58;;;;;;;5.67;3.35;;;;;;;0.94;72.47;99670.41;1749093;81;21555;-71
2020/12/26 05:48:27;;;;;;;6.03;3.17;;;;;;;0.87;72.67;99669.86;1756864;81;21155;-72
2020/12/26 05:51:00;;;;;;;6.60;3.47;;;;;;;0.82;72.92;99676.58;1753506;81;21105;-71
2020/12/26 05:53:28;;;;;;;4.47;3.20;;;;;;;0.76;73.24;99679.42;1754343;81;21095;-72
2020/12/26 05:55:56;;;;;;;5.70;3.30;;;;;;;0.72;73.59;99678.91;1749569;81;21295;-72
2020/12/26 05:58:25;;;;;;;5.43;3.30;;;;;;;0.67;73.98;99682.64;1743278;81;21099;-71
2020/12/26 06:00:52;;;;;;;7.57;4.27;;;;;;;0.62;74.34;99685.50;1750674;81;21099;-71
2020/12/26 06:03:34;;;;;;;7.13;3.90;;;;;;;0.58;74.62;99687.55;1754334;82;21142;-72
2020/12/26 06:06:04;;;;;;;5.77;3.47;;;;;;;0.56;74.87;99689.23;1738793;81;21196;-72
2020/12/26 06:08:32;;;;;;;5.37;3.47;;;;;;;0.54;75.12;99683.23;1729490;82;21158;-72
2020/12/26 06:11:02;;;;;;;6.20;3.60;;;;;;;0.51;75.40;99696.75;1751460;82;21126;-71
2020/12/26 06:13:32;;;;;;;12.87;3.70;;;;;;;0.50;75.59;99700.14;1747041;82;21098;-71
2020/12/26 06:16:22;;;;;;;5.37;3.60;;;;;;;0.48;75.85;99697.96;1747087;81;21123;-72
2020/12/26 06:18:59;;;;;;;10.67;4.47;;;;;;;0.48;76.07;99703.05;1720980;82;21118;-72
2020/12/26 06:21:26;;;;;;;6.87;3.87;;;;;;;0.46;76.28;99694.55;1750846;81;21152;-72
2020/12/26 06:23:54;;;;;;;6.60;4.10;;;;;;;0.46;76.44;99700.49;1753086;80;21176;-72
2020/12/26 06:26:22;;;;;;;5.90;3.90;;;;;;;0.47;76.64;99711.52;1748296;81;21108;-71
2020/12/26 06:28:50;;;;;;;11.70;5.37;;;;;;;0.48;76.68;99716.20;1732161;82;21497;-71
2020/12/26 06:31:18;;;;;;;8.50;5.93;;;;;;;0.48;76.79;99719.59;1701685;81;21179;-72
2020/12/26 06:33:50;;;;;;;7.90;5.20;;;;;;;0.49;76.92;99718.79;1716479;82;21116;-71
2020/12/26 06:36:19;;;;;;;12.20;7.53;;;;;;;0.49;77.01;99720.06;1726430;81;21116;-71
2020/12/26 06:38:47;;;;;;;10.73;5.90;;;;;;;0.49;77.06;99725.54;1723756;81;21141;-71
2020/12/26 06:41:16;;;;;;;19.00;7.90;;;;;;;0.44;77.35;99719.95;1750325;81;21258;-71
2020/12/26 06:43:56;;;;;;;9.27;4.97;;;;;;;0.43;77.51;99728.84;1760138;81;21120;-71
2020/12/26 06:46:29;;;;;;;9.17;5.23;;;;;;;0.39;77.84;99739.37;1701368;83;21158;-71
2020/12/26 06:48:58;;;;;;;14.23;6.70;;;;;;;0.38;78.28;99741.86;1670583;84;22421;-71
2020/12/26 06:51:42;;;;;;;9.60;5.30;;;;;;;0.38;78.86;99752.05;1694969;84;21177;-71
2020/12/26 06:54:12;;;;;;;9.93;4.80;;;;;;;0.36;79.12;99746.94;1681480;84;21178;-71
2020/12/26 06:56:45;;;;;;;14.03;7.47;;;;;;;0.35;79.54;99737.56;1720606;81;21132;-72
2020/12/26 06:59:14;;;;;;;14.13;7.73;;;;;;;0.34;79.99;99742.22;1727351;81;21135;-72
2020/12/26 07:01:45;;;;;;;10.37;5.27;;;;;;;0.36;80.39;99746.05;1704292;83;21145;-71
2020/12/26 07:04:20;;;;;;;10.28;5.12;;;;;;;0.36;80.69;99749.86;1754475;81;21144;-71
2020/12/26 07:06:54;;;;;;;10.70;4.80;;;;;;;0.37;81.04;99751.61;1759565;81;21156;-72
2020/12/26 07:09:59;;;;;;;10.37;5.30;;;;;;;0.38;81.37;99761.80;1756741;81;21081;-71
2020/12/26 07:12:41;;;;;;;14.17;8.20;;;;;;;0.39;81.69;99766.09;1607843;88;21247;-71
2020/12/26 07:15:09;;;;;;;14.43;9.17;;;;;;;0.40;81.78;99769.48;1678793;84;21173;-71
2020/12/26 07:17:37;;;;;;;15.23;7.97;;;;;;;0.36;82.08;99771.11;1671374;84;21139;-71
2020/12/26 07:20:06;;;;;;;13.70;7.53;;;;;;;0.37;82.43;99775.78;1669118;84;21280;-72
2020/12/26 07:22:35;;;;;;;14.93;9.00;;;;;;;0.35;82.92;99771.05;1666038;84;21275;-71
2020/12/26 07:25:07;;;;;;;14.87;7.90;;;;;;;0.30;83.25;99770.97;1654979;84;21259;-71
2020/12/26 07:27:41;;;;;;;25.03;13.23;;;;;;;0.25;83.98;99768.72;1682672;84;21141;-72
2020/12/26 07:30:11;;;;;;;22.83;12.27;;;;;;;0.22;84.62;99764.84;1655031;84;21562;-72
2020/12/26 07:32:59;;;;;;;21.07;11.63;;;;;;;0.20;84.73;99766.50;1662594;84;21232;-71
2020/12/26 07:35:35;;;;;;;17.13;9.87;;;;;;;0.21;85.04;99769.06;1649289;84;21747;-71
2020/12/26 07:38:09;;;;;;;15.38;9.28;;;;;;;0.24;85.18;99779.73;1681173;85;21177;-72
2020/12/26 07:40:44;;;;;;;16.30;9.47;;;;;;;0.27;85.86;99775.98;1678854;84;21133;-71
2020/12/26 07:43:15;;;;;;;16.00;9.63;;;;;;;0.31;85.86;99775.64;1667255;84;21145;-71
2020/12/26 07:45:48;;;;;;;12.67;7.73;;;;;;;0.33;85.95;99781.22;1655240;84;21113;-71
2020/12/26 07:48:16;;;;;;;16.27;8.87;;;;;;;0.38;86.32;99783.43;1660459;84;21122;-71
2020/12/26 07:50:44;;;;;;;17.93;9.23;;;;;;;0.45;86.17;99791.64;1665812;84;21126;-72
2020/12/26 07:53:13;;;;;;;17.37;9.57;;;;;;;0.57;86.06;99796.56;1683161;84;21141;-72
2020/12/26 07:55:41;;;;;;;18.77;9.40;;;;;;;0.71;85.69;99800.25;1660913;84;21137;-71
2020/12/26 07:58:13;;;;;;;15.20;8.53;;;;;;;0.90;84.90;99797.67;1667237;84;21129;-72
2020/12/26 08:00:43;;;;;;;14.43;8.77;;;;;;;1.07;84.46;99795.45;1681146;84;21113;-73
2020/12/26 08:03:12;;;;;;;15.10;7.93;;;;;;;1.23;83.66;99797.47;1666166;84;21161;-72
2020/12/26 08:05:48;;;;;;;13.33;8.13;;;;;;;1.38;83.17;99803.27;1682476;84;21153;-71
2020/12/26 08:10:59;;;;;;;17.40;8.10;;;;;;;1.75;81.76;99809.02;1830032;77;22107;-72
2020/12/26 08:13:29;;;;;;;13.73;8.10;;;;;;;1.83;80.97;99818.52;1812853;78;21130;-72
2020/12/26 08:16:03;;;;;;;13.10;8.33;;;;;;;1.94;80.85;99808.91;1786834;78;21122;-72
2020/12/26 08:18:33;;;;;;;13.80;8.43;;;;;;;2.06;80.32;99807.41;1760405;81;21506;-72
2020/12/26 08:21:00;;;;;;;15.70;8.30;;;;;;;2.18;79.68;99801.63;1741896;81;21149;-71
2020/12/26 08:23:28;;;;;;;15.43;9.33;;;;;;;2.27;78.92;99804.31;1732526;81;21138;-71
2020/12/26 08:26:02;;;;;;;17.93;10.23;;;;;;;2.33;79.01;99800.58;1765543;79;21110;-73
2020/12/26 08:28:30;;;;;;;17.17;10.67;;;;;;;2.44;78.65;99816.47;1727440;81;21272;-72
2020/12/26 08:31:02;;;;;;;20.93;11.20;;;;;;;2.49;78.22;99826.34;1743778;81;21137;-72
2020/12/26 08:33:35;;;;;;;20.67;10.57;;;;;;;2.48;77.95;99820.77;1714494;81;21121;-72
2020/12/26 08:36:25;;;;;;;14.73;7.67;;;;;;;2.45;78.22;99816.90;1743739;81;21218;-72
2020/12/26 08:39:00;;;;;;;18.43;7.10;;;;;;;2.44;78.32;99813.91;1759340;81;21118;-71
2020/12/26 08:41:29;;;;;;;13.63;7.77;;;;;;;2.41;78.32;99803.23;1737905;81;21125;-72
2020/12/26 08:43:57;;;;;;;12.47;8.37;;;;;;;2.41;78.58;99798.13;1707626;81;21130;-72
2020/12/26 08:46:25;;;;;;;18.53;8.37;;;;;;;2.47;78.93;99799.49;1737851;81;21134;-72
2020/12/26 08:48:55;;;;;;;17.70;8.30;;;;;;;2.57;78.51;99800.05;1762368;81;21173;-72
2020/12/26 08:51:25;;;;;;;17.27;8.17;;;;;;;2.62;78.59;99795.03;1755442;81;21149;-72
2020/12/26 08:53:56;;;;;;;20.45;8.08;;;;;;;2.68;78.15;99789.13;1737913;81;21125;-72
2020/12/26 08:56:34;;;;;;;;;;;;;;;2.77;77.92;99787.97;1740438;81;21291;-72
2020/12/26 08:59:02;;;;;;;16.87;9.27;;;;;;;2.85;77.61;99781.70;1727357;81;20141;-72
2020/12/26 09:01:30;;;;;;;13.27;7.83;;;;;;;2.95;77.39;99763.08;1749742;81;21169;-72
2020/12/26 09:03:57;;;;;;;17.90;7.87;;;;;;;3.36;77.03;99758.81;1739171;81;21594;-72
2020/12/26 09:06:40;;;;;;;12.17;7.67;;;;;;;3.77;74.41;99754.07;1759233;80;21542;-72
2020/12/26 09:09:24;;;;;;;13.80;8.67;;;;;;;3.98;73.73;99750.80;1727938;81;21138;-71
2020/12/26 09:12:03;;;;;;;25.13;10.73;;;;;;;4.03;72.37;99747.02;1720603;82;21515;-71
2020/12/26 09:14:31;;;;;;;18.37;9.83;;;;;;;3.97;72.19;99743.98;1806220;79;21075;-71
2020/12/26 09:17:00;;;;;;;12.37;7.57;;;;;;;3.87;72.54;99743.05;1794859;79;21134;-72
2020/12/26 09:19:43;;;;;;;14.90;8.35;;;;;;;3.77;72.56;99753.22;1740566;82;21119;-72
2020/12/26 09:22:12;;;;;;;15.17;8.30;;;;;;;3.65;72.98;99760.36;1795369;79;21106;-72
2020/12/26 09:24:39;;;;;;;17.77;9.17;;;;;;;3.48;73.59;99769.16;1785325;79;21111;-71
2020/12/26 09:27:20;;;;;;;14.57;9.30;;;;;;;3.35;74.09;99772.02;1779742;79;21070;-72
2020/12/26 09:29:51;;;;;;;15.10;8.88;;;;;;;3.55;74.57;99776.47;1779901;79;21135;-72
2020/12/26 09:32:20;;;;;;;11.00;6.37;;;;;;;3.55;74.57;99776.47;1779719;79;21126;-72
2020/12/26 09:34:47;;;;;;;12.27;6.80;;;;;;;3.46;74.56;99781.92;1779715;79;21091;-71
2020/12/26 09:37:16;;;;;;;10.37;6.40;;;;;;;3.31;75.12;99792.02;1779803;79;21083;-72
2020/12/26 09:39:44;;;;;;;9.60;5.17;;;;;;;3.18;75.96;99811.47;1779781;79;21293;-73
2020/12/26 09:42:11;;;;;;;9.63;5.67;;;;;;;3.07;76.42;99812.17;1779809;79;21476;-71
2020/12/26 09:44:40;;;;;;;7.77;4.87;;;;;;;2.89;77.17;99820.06;1779751;79;21075;-72
2020/12/26 09:47:07;;;;;;;9.37;5.70;;;;;;;2.75;77.69;99821.17;1782272;79;21511;-71
2020/12/26 09:49:35;;;;;;;9.33;5.47;;;;;;;2.69;78.19;99809.59;1742602;82;21534;-71
2020/12/26 09:52:03;;;;;;;10.10;5.70;;;;;;;2.67;78.95;99807.42;1734156;82;21105;-71
2020/12/26 09:54:31;;;;;;;11.27;6.60;;;;;;;2.67;79.01;99808.70;1811894;79;21114;-71
2020/12/26 09:56:59;;;;;;;11.40;6.90;;;;;;;2.64;79.51;99820.58;1753492;81;21277;-71
2020/12/26 09:59:27;;;;;;;16.63;8.53;;;;;;;2.65;79.58;99821.89;1779693;79;21131;-71
2020/12/26 10:01:54;;;;;;;13.80;8.00;;;;;;;2.69;79.58;99822.36;1779731;79;21131;-72
2020/12/26 10:04:22;;;;;;;17.50;8.37;;;;;;;2.75;79.57;99820.31;1779511;79;21099;-71
2020/12/26 10:06:50;;;;;;;14.97;8.00;;;;;;;2.74;79.54;99823.27;1779784;79;21138;-71
2020/12/26 10:09:17;;;;;;;13.13;6.40;;;;;;;2.76;79.83;99822.88;1779979;79;21170;-72
2020/12/26 10:11:46;;;;;;;11.57;5.90;;;;;;;2.81;78.75;99837.86;1788260;79;21121;-72
2020/12/26 10:14:14;;;;;;;10.00;5.93;;;;;;;2.78;78.27;99848.03;1787980;79;21106;-73
2020/12/26 10:16:42;;;;;;;11.13;5.90;;;;;;;2.70;78.49;99844.92;1750211;80;21098;-71
2020/12/26 10:19:09;;;;;;;9.17;5.03;;;;;;;2.66;79.00;99827.84;1787880;79;21157;-72
2020/12/26 10:21:39;;;;;;;15.45;6.90;;;;;;;2.66;78.95;99842.75;1787896;79;21130;-72
2020/12/26 10:24:07;;;;;;;11.63;6.13;;;;;;;2.73;79.11;99846.24;1794003;79;21154;-71
2020/12/26 10:26:36;;;;;;;10.33;6.07;;;;;;;2.79;79.25;99834.41;1787853;79;21154;-71
2020/12/26 10:29:04;;;;;;;15.57;8.30;;;;;;;2.89;79.27;99839.65;1788710;79;21138;-71
2020/12/26 10:31:34;;;;;;;12.58;6.83;;;;;;;2.95;79.34;99835.90;1800333;79;21180;-71
2020/12/26 10:34:02;;;;;;;11.07;6.57;;;;;;;2.96;79.12;99844.84;1791122;79;21126;-72
2020/12/26 10:36:30;;;;;;;13.37;8.53;;;;;;;2.88;79.31;99844.30;1801661;79;21122;-72
2020/12/26 10:38:57;;;;;;;11.67;6.53;;;;;;;2.84;79.90;99843.41;1795497;79;21098;-72
2020/12/26 10:41:25;;;;;;;9.63;6.17;;;;;;;2.86;79.96;99858.77;1734906;82;21146;-71
2020/12/26 10:43:53;;;;;;;11.90;7.07;;;;;;;2.81;79.59;99843.36;1788203;79;21118;-72
2020/12/26 10:46:23;;;;;;;10.95;5.65;;;;;;;2.79;79.76;99850.16;1788606;79;21134;-72
2020/12/26 10:48:53;;;;;;;12.97;7.77;;;;;;;2.84;79.87;99858.73;1791491;79;21129;-72
2020/12/26 10:51:20;;;;;;;14.93;8.03;;;;;;;2.90;79.83;99857.96;1751081;82;21119;-72
2020/12/26 10:53:48;;;;;;;16.67;8.63;;;;;;;2.89;79.92;99865.20;1796402;79;21107;-72
2020/12/26 10:56:16;;;;;;;14.60;7.80;;;;;;;2.83;80.12;99864.69;1767860;79;21130;-72
2020/12/26 10:58:44;;;;;;;18.53;9.60;;;;;;;2.79;79.58;99865.06;1798684;79;21106;-72
2020/12/26 11:01:12;;;;;;;15.97;9.87;;;;;;;2.72;79.65;99868.38;1787692;79;21114;-72
2020/12/26 11:03:39;;;;;;;15.80;9.60;;;;;;;2.69;79.97;99875.14;1787896;79;21094;-71
2020/12/26 11:06:10;;;;;;;15.40;7.93;;;;;;;2.64;80.39;99878.89;1787684;79;21539;-72
2020/12/26 11:08:40;;;;;;;13.30;8.10;;;;;;;2.61;80.25;99871.18;1766622;80;21118;-72
2020/12/26 11:11:09;;;;;;;10.80;5.90;;;;;;;2.55;80.17;99879.63;1747787;82;21135;-72
2020/12/26 11:13:38;;;;;;;10.87;5.97;;;;;;;2.49;80.16;99875.70;1796088;79;21118;-72
2020/12/26 11:16:06;;;;;;;13.03;8.63;;;;;;;2.44;80.52;99879.87;1779359;79;21123;-72
2020/12/26 11:18:35;;;;;;;12.23;6.63;;;;;;;2.43;80.81;99878.59;1779147;79;21114;-72
2020/12/26 11:21:03;;;;;;;11.10;6.60;;;;;;;2.45;81.18;99865.41;1721413;82;21134;-71
2020/12/26 11:23:32;;;;;;;13.93;8.00;;;;;;;2.48;81.15;99858.65;1790075;79;21146;-72
2020/12/26 11:25:59;;;;;;;13.90;8.23;;;;;;;2.51;81.14;99868.05;1790380;79;21540;-72
2020/12/26 11:28:29;;;;;;;9.93;6.43;;;;;;;2.55;81.19;99868.14;1796816;79;21122;-71
2020/12/26 11:30:57;;;;;;;10.80;6.00;;;;;;;2.61;80.91;99867.77;1779283;79;21079;-72
2020/12/26 11:33:24;;;;;;;11.77;6.33;;;;;;;2.63;80.62;99869.52;1779726;79;21103;-72
2020/12/26 11:35:52;;;;;;;11.63;6.63;;;;;;;2.62;80.34;99869.09;1779486;79;21119;-72
2020/12/26 11:38:20;;;;;;;11.20;6.37;;;;;;;2.56;80.58;99868.58;1779629;81;21146;-72
2020/12/26 11:40:47;;;;;;;15.93;8.37;;;;;;;2.53;80.71;99867.25;1801797;79;21119;-72
2020/12/26 11:43:17;;;;;;;16.47;8.83;;;;;;;2.49;81.33;99871.02;1799016;79;21106;-72
2020/12/26 11:45:47;;;;;;;15.65;9.18;;;;;;;2.55;81.49;99864.70;1731318;82;21134;-71
2020/12/26 11:48:15;;;;;;;10.97;6.27;;;;;;;2.55;81.49;99864.70;1779907;79;21118;-72
2020/12/26 11:50:44;;;;;;;12.87;6.70;;;;;;;2.58;81.50;99857.09;1779198;79;21114;-71
2020/12/26 11:53:12;;;;;;;11.80;6.63;;;;;;;2.55;81.75;99855.38;1779645;79;21119;-72